PLT2201 SBEG-SBGR
Flight info
| Callsign | PLT2201 |
|---|---|
| Flight time | 3h 31m |
| Altitude | 33000 |
| Route | GIKVI UM417 UMGUP DCT MATNA UZ87 LOKEL/N0468F350 UZ87 OBLUG UZ42 ZARES |
| Aircraft | B738/M-SDE2E3FGHIRWXY/LB1 |
Departure
| Time | 2026-04-25 12:20 |
|---|---|
| Airport | Eduardo Gomes International Airport (SBEG) |
Arrival
| Time | 2026-04-25 15:52 |
|---|---|
| Airport | São Paulo/Guarulhos–Governor André Franco Montoro International Airport (SBGR) |
| Time | Latitude | Longitude | Altitude | Speed | Heading |
|---|---|---|---|---|---|
| 2026-04-25 11:52 | -3.03280 | -60.04580 | 241 ft | 0 kts | 358° |
| 2026-04-25 12:10 | -3.03288 | -60.04580 | 240 ft | 2 kts | 358° |
| 2026-04-25 12:11 | -3.03303 | -60.04579 | 240 ft | 2 kts | 358° |
| 2026-04-25 12:11 | -3.03319 | -60.04579 | 240 ft | 2 kts | 358° |
| 2026-04-25 12:11 | -3.03328 | -60.04578 | 240 ft | 2 kts | 358° |
| 2026-04-25 12:11 | -3.03342 | -60.04573 | 240 ft | 2 kts | 319° |
| 2026-04-25 12:12 | -3.03351 | -60.04562 | 240 ft | 2 kts | 289° |
| 2026-04-25 12:12 | -3.03353 | -60.04553 | 240 ft | 0 kts | 270° |
| 2026-04-25 12:12 | -3.03353 | -60.04544 | 240 ft | 0 kts | 265° |
| 2026-04-25 12:14 | -3.03353 | -60.04545 | 240 ft | 0 kts | 265° |
| 2026-04-25 12:14 | -3.03353 | -60.04553 | 240 ft | 2 kts | 266° |
| 2026-04-25 12:14 | -3.03354 | -60.04574 | 240 ft | 3 kts | 268° |
| 2026-04-25 12:15 | -3.03355 | -60.04604 | 240 ft | 4 kts | 270° |
| 2026-04-25 12:15 | -3.03354 | -60.04641 | 240 ft | 5 kts | 271° |
| 2026-04-25 12:15 | -3.03355 | -60.04689 | 240 ft | 8 kts | 267° |
| 2026-04-25 12:15 | -3.03367 | -60.04758 | 240 ft | 11 kts | 250° |
| 2026-04-25 12:16 | -3.03421 | -60.04835 | 240 ft | 15 kts | 226° |
| 2026-04-25 12:16 | -3.03509 | -60.04908 | 240 ft | 17 kts | 222° |
| 2026-04-25 12:16 | -3.03582 | -60.05016 | 240 ft | 20 kts | 252° |
| 2026-04-25 12:16 | -3.03623 | -60.05160 | 240 ft | 22 kts | 254° |
| 2026-04-25 12:17 | -3.03665 | -60.05323 | 240 ft | 25 kts | 260° |
| 2026-04-25 12:17 | -3.03691 | -60.05506 | 238 ft | 26 kts | 266° |
| 2026-04-25 12:17 | -3.03692 | -60.05675 | 236 ft | 23 kts | 270° |
| 2026-04-25 12:17 | -3.03692 | -60.05828 | 235 ft | 21 kts | 270° |
| 2026-04-25 12:18 | -3.03691 | -60.05968 | 235 ft | 19 kts | 271° |
| 2026-04-25 12:18 | -3.03694 | -60.06097 | 236 ft | 17 kts | 257° |
| 2026-04-25 12:18 | -3.03746 | -60.06169 | 237 ft | 6 kts | 198° |
| 2026-04-25 12:18 | -3.03753 | -60.06171 | 237 ft | 0 kts | 193° |
| 2026-04-25 12:19 | -3.03778 | -60.06175 | 237 ft | 10 kts | 183° |
| 2026-04-25 12:19 | -3.03856 | -60.06043 | 236 ft | 33 kts | 90° |
| 2026-04-25 12:19 | -3.03858 | -60.05530 | 240 ft | 109 kts | 90° |
| 2026-04-25 12:20 | -3.03859 | -60.04545 | 242 ft | 172 kts | 89° |
| 2026-04-25 12:20 | -3.03825 | -60.03246 | 702 ft | 191 kts | 87° |
| 2026-04-25 12:20 | -3.03777 | -60.02023 | 1857 ft | 174 kts | 90° |
| 2026-04-25 12:20 | -3.03875 | -60.00806 | 2309 ft | 188 kts | 107° |
| 2026-04-25 12:21 | -3.04670 | -59.99725 | 2725 ft | 207 kts | 141° |
| 2026-04-25 12:21 | -3.05967 | -59.98926 | 3205 ft | 224 kts | 146° |
| 2026-04-25 12:21 | -3.07330 | -59.98112 | 3742 ft | 236 kts | 145° |
| 2026-04-25 12:21 | -3.08754 | -59.97196 | 4326 ft | 249 kts | 143° |
| 2026-04-25 12:22 | -3.10248 | -59.96204 | 4874 ft | 263 kts | 144° |
| 2026-04-25 12:22 | -3.11796 | -59.95171 | 5541 ft | 272 kts | 144° |
| 2026-04-25 12:22 | -3.13367 | -59.94128 | 6285 ft | 277 kts | 144° |
| 2026-04-25 12:22 | -3.14979 | -59.93061 | 7049 ft | 280 kts | 143° |
| 2026-04-25 12:23 | -3.16623 | -59.91972 | 7797 ft | 284 kts | 143° |
| 2026-04-25 12:23 | -3.18289 | -59.90868 | 8511 ft | 288 kts | 143° |
| 2026-04-25 12:23 | -3.19970 | -59.89753 | 9206 ft | 292 kts | 144° |
| 2026-04-25 12:23 | -3.21659 | -59.88633 | 9885 ft | 296 kts | 144° |
| 2026-04-25 12:24 | -3.23406 | -59.87474 | 10454 ft | 304 kts | 143° |
| 2026-04-25 12:24 | -3.25206 | -59.86278 | 10836 ft | 319 kts | 144° |
| 2026-04-25 12:24 | -3.27108 | -59.85016 | 11210 ft | 334 kts | 144° |
| 2026-04-25 12:24 | -3.29087 | -59.83703 | 11540 ft | 350 kts | 144° |
| 2026-04-25 12:25 | -3.31193 | -59.82307 | 11872 ft | 364 kts | 144° |
| 2026-04-25 12:25 | -3.33347 | -59.80882 | 12322 ft | 374 kts | 144° |
| 2026-04-25 12:25 | -3.35520 | -59.79445 | 12936 ft | 378 kts | 144° |
| 2026-04-25 12:25 | -3.37726 | -59.77985 | 13525 ft | 383 kts | 144° |
| 2026-04-25 12:26 | -3.39950 | -59.76512 | 14140 ft | 385 kts | 144° |
| 2026-04-25 12:26 | -3.42198 | -59.75021 | 14730 ft | 388 kts | 144° |
| 2026-04-25 12:26 | -3.44486 | -59.73502 | 15286 ft | 392 kts | 144° |
| 2026-04-25 12:26 | -3.46776 | -59.71983 | 15828 ft | 396 kts | 144° |
| 2026-04-25 12:27 | -3.49074 | -59.70458 | 16391 ft | 398 kts | 144° |
| 2026-04-25 12:27 | -3.51387 | -59.68923 | 16875 ft | 402 kts | 144° |
| 2026-04-25 12:27 | -3.53685 | -59.67311 | 17410 ft | 403 kts | 141° |
| 2026-04-25 12:27 | -3.55886 | -59.65521 | 17936 ft | 405 kts | 137° |
| 2026-04-25 12:28 | -3.57987 | -59.63644 | 18429 ft | 408 kts | 136° |
| 2026-04-25 12:28 | -3.60087 | -59.61695 | 18911 ft | 411 kts | 135° |
| 2026-04-25 12:28 | -3.62175 | -59.59747 | 19426 ft | 412 kts | 135° |
| 2026-04-25 12:28 | -3.64287 | -59.57794 | 19920 ft | 414 kts | 135° |
| 2026-04-25 12:29 | -3.66432 | -59.55829 | 20360 ft | 417 kts | 135° |
| 2026-04-25 12:29 | -3.68575 | -59.53879 | 20791 ft | 420 kts | 135° |
| 2026-04-25 12:29 | -3.70745 | -59.51912 | 21248 ft | 422 kts | 136° |
| 2026-04-25 12:29 | -3.72936 | -59.49931 | 21587 ft | 427 kts | 136° |
| 2026-04-25 12:30 | -3.75147 | -59.47934 | 22039 ft | 428 kts | 135° |
| 2026-04-25 12:30 | -3.77379 | -59.45919 | 22424 ft | 431 kts | 135° |
| 2026-04-25 12:30 | -3.79608 | -59.43906 | 22807 ft | 434 kts | 136° |
| 2026-04-25 12:30 | -3.81858 | -59.41874 | 23108 ft | 439 kts | 136° |
| 2026-04-25 12:31 | -3.84131 | -59.39822 | 23504 ft | 441 kts | 136° |
| 2026-04-25 12:31 | -3.86447 | -59.37729 | 23893 ft | 443 kts | 135° |
| 2026-04-25 12:31 | -3.88727 | -59.35667 | 24250 ft | 446 kts | 136° |
| 2026-04-25 12:31 | -3.91054 | -59.33565 | 24652 ft | 449 kts | 136° |
| 2026-04-25 12:32 | -3.93368 | -59.31474 | 25016 ft | 451 kts | 136° |
| 2026-04-25 12:32 | -3.95719 | -59.29349 | 25407 ft | 453 kts | 135° |
| 2026-04-25 12:32 | -3.98066 | -59.27227 | 25725 ft | 456 kts | 136° |
| 2026-04-25 12:32 | -4.00437 | -59.25086 | 26039 ft | 460 kts | 135° |
| 2026-04-25 12:33 | -4.02829 | -59.22924 | 26342 ft | 463 kts | 136° |
| 2026-04-25 12:33 | -4.05241 | -59.20746 | 26705 ft | 465 kts | 136° |
| 2026-04-25 12:33 | -4.07658 | -59.18562 | 27085 ft | 466 kts | 136° |
| 2026-04-25 12:33 | -4.10062 | -59.16388 | 27414 ft | 468 kts | 135° |
| 2026-04-25 12:34 | -4.12472 | -59.14206 | 27705 ft | 471 kts | 135° |
| 2026-04-25 12:34 | -4.14937 | -59.11975 | 28030 ft | 473 kts | 136° |
| 2026-04-25 12:34 | -4.17368 | -59.09778 | 28384 ft | 474 kts | 135° |
| 2026-04-25 12:34 | -4.19022 | -59.08283 | 28603 ft | 475 kts | 135° |
| 2026-04-25 12:35 | -4.22284 | -59.05333 | 29033 ft | 477 kts | 135° |
| 2026-04-25 12:35 | -4.24771 | -59.03085 | 29371 ft | 478 kts | 136° |
| 2026-04-25 12:35 | -4.27227 | -59.00863 | 29831 ft | 476 kts | 135° |
| 2026-04-25 12:35 | -4.29674 | -58.98650 | 30357 ft | 473 kts | 135° |
| 2026-04-25 12:36 | -4.32136 | -58.96424 | 30872 ft | 469 kts | 135° |
| 2026-04-25 12:36 | -4.34553 | -58.94238 | 31285 ft | 468 kts | 136° |
| 2026-04-25 12:36 | -4.36948 | -58.92071 | 31618 ft | 468 kts | 135° |
| 2026-04-25 12:36 | -4.39372 | -58.89876 | 31858 ft | 470 kts | 136° |
| 2026-04-25 12:37 | -4.41807 | -58.87671 | 32164 ft | 469 kts | 135° |
| 2026-04-25 12:37 | -4.44235 | -58.85474 | 32607 ft | 466 kts | 135° |
| 2026-04-25 12:37 | -4.46623 | -58.83313 | 33062 ft | 463 kts | 135° |
| 2026-04-25 12:37 | -4.49008 | -58.81154 | 33559 ft | 459 kts | 135° |
| 2026-04-25 12:38 | -4.51379 | -58.79017 | 34090 ft | 454 kts | 135° |
| 2026-04-25 12:38 | -4.53747 | -58.76952 | 34610 ft | 449 kts | 137° |
| 2026-04-25 12:38 | -4.56219 | -58.75065 | 34957 ft | 449 kts | 142° |
| 2026-04-25 12:39 | -4.61611 | -58.71777 | 34958 ft | 451 kts | 148° |
| 2026-04-25 12:39 | -4.67168 | -58.68817 | 34955 ft | 452 kts | 149° |
| 2026-04-25 12:40 | -4.72740 | -58.65919 | 34956 ft | 452 kts | 149° |
| 2026-04-25 12:40 | -4.78339 | -58.62991 | 34955 ft | 454 kts | 149° |
| 2026-04-25 12:41 | -4.83967 | -58.60024 | 34956 ft | 453 kts | 149° |
| 2026-04-25 12:41 | -4.89557 | -58.57060 | 34958 ft | 454 kts | 149° |
| 2026-04-25 12:42 | -4.95130 | -58.54097 | 34953 ft | 455 kts | 149° |
| 2026-04-25 12:42 | -5.00732 | -58.51115 | 34961 ft | 455 kts | 149° |
| 2026-04-25 12:43 | -5.06340 | -58.48129 | 34968 ft | 454 kts | 149° |
| 2026-04-25 12:43 | -5.14751 | -58.43647 | 34971 ft | 454 kts | 149° |
| 2026-04-25 12:44 | -5.20315 | -58.40680 | 34968 ft | 454 kts | 149° |
| 2026-04-25 12:45 | -5.28720 | -58.36201 | 34970 ft | 453 kts | 149° |
| 2026-04-25 12:45 | -5.37113 | -58.31726 | 34976 ft | 455 kts | 149° |
| 2026-04-25 12:46 | -5.42713 | -58.28742 | 34976 ft | 454 kts | 149° |
| 2026-04-25 12:46 | -5.48311 | -58.25756 | 34976 ft | 454 kts | 149° |
| 2026-04-25 12:47 | -5.53895 | -58.22777 | 34979 ft | 453 kts | 149° |
| 2026-04-25 12:47 | -5.59478 | -58.19798 | 34980 ft | 453 kts | 149° |
| 2026-04-25 12:48 | -5.65072 | -58.16813 | 34982 ft | 453 kts | 149° |
| 2026-04-25 12:48 | -5.70641 | -58.13840 | 34982 ft | 454 kts | 149° |
| 2026-04-25 12:49 | -5.76255 | -58.10842 | 34980 ft | 454 kts | 149° |
| 2026-04-25 12:49 | -5.81834 | -58.07864 | 34979 ft | 454 kts | 149° |
| 2026-04-25 12:50 | -5.87437 | -58.04872 | 34983 ft | 452 kts | 149° |
| 2026-04-25 12:50 | -5.92995 | -58.01901 | 34983 ft | 454 kts | 149° |
| 2026-04-25 12:51 | -5.98609 | -57.98900 | 34985 ft | 453 kts | 149° |
| 2026-04-25 12:51 | -6.04188 | -57.95918 | 34982 ft | 454 kts | 149° |
| 2026-04-25 12:52 | -6.09766 | -57.92937 | 34984 ft | 454 kts | 149° |
| 2026-04-25 12:52 | -6.15394 | -57.89928 | 34979 ft | 455 kts | 149° |
| 2026-04-25 12:53 | -6.20985 | -57.86937 | 34970 ft | 454 kts | 149° |
| 2026-04-25 12:53 | -6.26583 | -57.83941 | 34960 ft | 454 kts | 149° |
| 2026-04-25 12:54 | -6.32191 | -57.80938 | 34959 ft | 454 kts | 149° |
| 2026-04-25 12:54 | -6.37780 | -57.77945 | 34960 ft | 455 kts | 149° |
| 2026-04-25 12:55 | -6.42449 | -57.75446 | 34961 ft | 455 kts | 149° |
| 2026-04-25 12:55 | -6.48964 | -57.71955 | 34967 ft | 455 kts | 149° |
| 2026-04-25 12:56 | -6.54559 | -57.68959 | 34972 ft | 455 kts | 149° |
| 2026-04-25 12:56 | -6.60184 | -57.65944 | 34972 ft | 455 kts | 149° |
| 2026-04-25 12:57 | -6.65775 | -57.62946 | 34974 ft | 456 kts | 149° |
| 2026-04-25 12:57 | -6.71394 | -57.59934 | 34977 ft | 455 kts | 149° |
| 2026-04-25 12:58 | -6.76991 | -57.56932 | 34977 ft | 455 kts | 149° |
| 2026-04-25 12:58 | -6.82600 | -57.53923 | 34983 ft | 456 kts | 149° |
| 2026-04-25 12:59 | -6.88172 | -57.50933 | 34984 ft | 455 kts | 149° |
| 2026-04-25 12:59 | -6.93803 | -57.47910 | 34989 ft | 455 kts | 149° |
| 2026-04-25 13:00 | -6.97531 | -57.45909 | 34989 ft | 455 kts | 149° |
| 2026-04-25 13:00 | -7.05023 | -57.41886 | 34994 ft | 457 kts | 149° |
| 2026-04-25 13:01 | -7.10612 | -57.38884 | 35000 ft | 456 kts | 149° |
| 2026-04-25 13:01 | -7.16241 | -57.35859 | 35008 ft | 456 kts | 149° |
| 2026-04-25 13:02 | -7.21863 | -57.32836 | 35011 ft | 456 kts | 149° |
| 2026-04-25 13:02 | -7.27482 | -57.29814 | 35013 ft | 456 kts | 149° |
| 2026-04-25 13:03 | -7.33148 | -57.26767 | 35006 ft | 456 kts | 149° |
| 2026-04-25 13:03 | -7.38753 | -57.23751 | 35001 ft | 457 kts | 149° |
| 2026-04-25 13:04 | -7.44369 | -57.20728 | 34998 ft | 457 kts | 149° |
| 2026-04-25 13:04 | -7.50002 | -57.17697 | 34995 ft | 457 kts | 149° |
| 2026-04-25 13:05 | -7.55623 | -57.14671 | 34996 ft | 457 kts | 149° |
| 2026-04-25 13:05 | -7.61226 | -57.11653 | 34999 ft | 457 kts | 149° |
| 2026-04-25 13:06 | -7.66856 | -57.08620 | 35003 ft | 457 kts | 149° |
| 2026-04-25 13:06 | -7.72452 | -57.05605 | 35007 ft | 457 kts | 149° |
| 2026-04-25 13:07 | -7.78087 | -57.02566 | 35011 ft | 457 kts | 149° |
| 2026-04-25 13:07 | -7.83692 | -56.99544 | 35011 ft | 458 kts | 149° |
| 2026-04-25 13:08 | -7.89335 | -56.96500 | 35009 ft | 458 kts | 150° |
| 2026-04-25 13:08 | -7.94966 | -56.93463 | 35009 ft | 457 kts | 150° |
| 2026-04-25 13:09 | -8.00559 | -56.90445 | 35011 ft | 457 kts | 150° |
| 2026-04-25 13:09 | -8.06203 | -56.87447 | 35012 ft | 458 kts | 152° |
| 2026-04-25 13:10 | -8.12165 | -56.84979 | 35018 ft | 460 kts | 158° |
| 2026-04-25 13:10 | -8.18217 | -56.82917 | 35019 ft | 461 kts | 160° |
| 2026-04-25 13:11 | -8.24345 | -56.80909 | 35021 ft | 461 kts | 160° |
| 2026-04-25 13:11 | -8.30457 | -56.78888 | 35019 ft | 461 kts | 160° |
| 2026-04-25 13:12 | -8.36586 | -56.76834 | 35020 ft | 461 kts | 160° |
| 2026-04-25 13:12 | -8.41678 | -56.75114 | 35021 ft | 461 kts | 159° |
| 2026-04-25 13:13 | -8.48770 | -56.72708 | 35020 ft | 462 kts | 159° |
| 2026-04-25 13:13 | -8.54909 | -56.70620 | 35016 ft | 462 kts | 159° |
| 2026-04-25 13:14 | -8.61016 | -56.68539 | 35012 ft | 462 kts | 159° |
| 2026-04-25 13:14 | -8.67117 | -56.66460 | 35007 ft | 463 kts | 160° |
| 2026-04-25 13:15 | -8.73242 | -56.64374 | 34998 ft | 463 kts | 159° |
| 2026-04-25 13:15 | -8.79335 | -56.62298 | 34995 ft | 461 kts | 159° |
| 2026-04-25 13:16 | -8.85425 | -56.60222 | 34992 ft | 463 kts | 159° |
| 2026-04-25 13:16 | -8.91580 | -56.58122 | 34989 ft | 463 kts | 159° |
| 2026-04-25 13:17 | -8.97693 | -56.56036 | 34991 ft | 463 kts | 159° |
| 2026-04-25 13:17 | -9.03828 | -56.53941 | 34990 ft | 465 kts | 160° |
| 2026-04-25 13:18 | -9.09953 | -56.51850 | 34991 ft | 464 kts | 159° |
| 2026-04-25 13:18 | -9.16118 | -56.49744 | 34991 ft | 464 kts | 159° |
| 2026-04-25 13:19 | -9.22233 | -56.47654 | 34992 ft | 464 kts | 159° |
| 2026-04-25 13:19 | -9.26311 | -56.46259 | 34992 ft | 464 kts | 159° |
| 2026-04-25 13:20 | -9.34523 | -56.43451 | 34996 ft | 465 kts | 159° |
| 2026-04-25 13:20 | -9.40668 | -56.41349 | 35001 ft | 466 kts | 159° |
| 2026-04-25 13:21 | -9.46807 | -56.39249 | 34999 ft | 466 kts | 159° |
| 2026-04-25 13:21 | -9.52982 | -56.37135 | 35002 ft | 466 kts | 159° |
| 2026-04-25 13:22 | -9.59131 | -56.35030 | 35002 ft | 467 kts | 159° |
| 2026-04-25 13:23 | -9.68384 | -56.31860 | 35002 ft | 466 kts | 159° |
| 2026-04-25 13:23 | -9.74412 | -56.29357 | 35005 ft | 465 kts | 152° |
| 2026-04-25 13:24 | -9.80129 | -56.26334 | 35012 ft | 464 kts | 149° |
| 2026-04-25 13:24 | -9.84856 | -56.23679 | 35015 ft | 464 kts | 149° |
| 2026-04-25 13:25 | -9.91426 | -56.19964 | 35022 ft | 463 kts | 149° |
| 2026-04-25 13:25 | -9.97097 | -56.16782 | 35025 ft | 466 kts | 149° |
| 2026-04-25 13:26 | -10.02786 | -56.13609 | 35028 ft | 466 kts | 149° |
| 2026-04-25 13:26 | -10.08516 | -56.10422 | 35025 ft | 466 kts | 149° |
| 2026-04-25 13:27 | -10.14194 | -56.07267 | 35021 ft | 467 kts | 149° |
| 2026-04-25 13:27 | -10.19906 | -56.04093 | 35013 ft | 466 kts | 149° |
| 2026-04-25 13:28 | -10.25607 | -56.00924 | 35008 ft | 467 kts | 149° |
| 2026-04-25 13:28 | -10.31329 | -55.97741 | 35004 ft | 467 kts | 149° |
| 2026-04-25 13:29 | -10.37035 | -55.94566 | 35002 ft | 468 kts | 149° |
| 2026-04-25 13:29 | -10.42766 | -55.91375 | 35001 ft | 467 kts | 149° |
| 2026-04-25 13:30 | -10.51323 | -55.86609 | 35003 ft | 468 kts | 149° |
| 2026-04-25 13:31 | -10.59896 | -55.81832 | 35011 ft | 468 kts | 149° |
| 2026-04-25 13:31 | -10.65622 | -55.78639 | 35016 ft | 469 kts | 149° |
| 2026-04-25 13:32 | -10.71370 | -55.75433 | 35022 ft | 468 kts | 149° |
| 2026-04-25 13:32 | -10.77100 | -55.72234 | 35023 ft | 468 kts | 149° |
| 2026-04-25 13:33 | -10.82793 | -55.69055 | 35018 ft | 468 kts | 149° |
| 2026-04-25 13:33 | -10.88524 | -55.65854 | 35016 ft | 468 kts | 149° |
| 2026-04-25 13:34 | -10.94269 | -55.62643 | 35012 ft | 469 kts | 149° |
| 2026-04-25 13:34 | -10.99981 | -55.59450 | 35009 ft | 469 kts | 149° |
| 2026-04-25 13:35 | -11.05679 | -55.56263 | 35009 ft | 469 kts | 149° |
| 2026-04-25 13:35 | -11.11443 | -55.53038 | 35009 ft | 469 kts | 149° |
| 2026-04-25 13:36 | -11.17152 | -55.49842 | 35011 ft | 469 kts | 149° |
| 2026-04-25 13:36 | -11.22906 | -55.46618 | 35011 ft | 469 kts | 149° |
| 2026-04-25 13:37 | -11.28664 | -55.43484 | 35012 ft | 470 kts | 152° |
| 2026-04-25 13:37 | -11.34608 | -55.40635 | 35015 ft | 470 kts | 154° |
| 2026-04-25 13:38 | -11.40572 | -55.37890 | 35017 ft | 471 kts | 154° |
| 2026-04-25 13:38 | -11.46578 | -55.35110 | 35024 ft | 469 kts | 153° |
| 2026-04-25 13:39 | -11.52533 | -55.32322 | 35031 ft | 471 kts | 153° |
| 2026-04-25 13:39 | -11.58511 | -55.29499 | 35033 ft | 470 kts | 153° |
| 2026-04-25 13:40 | -11.64446 | -55.26686 | 35036 ft | 470 kts | 153° |
| 2026-04-25 13:40 | -11.70388 | -55.23863 | 35037 ft | 471 kts | 153° |
| 2026-04-25 13:41 | -11.76348 | -55.21014 | 35037 ft | 471 kts | 152° |
| 2026-04-25 13:41 | -11.82139 | -55.17867 | 35036 ft | 469 kts | 148° |
| 2026-04-25 13:42 | -11.87839 | -55.14536 | 35033 ft | 470 kts | 148° |
| 2026-04-25 13:42 | -11.93451 | -55.11250 | 35028 ft | 470 kts | 148° |
| 2026-04-25 13:43 | -11.99160 | -55.07947 | 35027 ft | 470 kts | 149° |
| 2026-04-25 13:43 | -12.04846 | -55.04687 | 35028 ft | 470 kts | 149° |
| 2026-04-25 13:44 | -12.10572 | -55.01415 | 35032 ft | 470 kts | 149° |
| 2026-04-25 13:44 | -12.16322 | -54.98134 | 35037 ft | 470 kts | 148° |
| 2026-04-25 13:45 | -12.22033 | -54.94873 | 35037 ft | 469 kts | 149° |
| 2026-04-25 13:45 | -12.27758 | -54.91604 | 35036 ft | 469 kts | 148° |
| 2026-04-25 13:46 | -12.33432 | -54.88361 | 35038 ft | 470 kts | 149° |
| 2026-04-25 13:46 | -12.39171 | -54.85078 | 35036 ft | 469 kts | 148° |
| 2026-04-25 13:47 | -12.44862 | -54.81823 | 35030 ft | 469 kts | 148° |
| 2026-04-25 13:47 | -12.50568 | -54.78577 | 35021 ft | 469 kts | 149° |
| 2026-04-25 13:48 | -12.56312 | -54.75343 | 35014 ft | 468 kts | 149° |
| 2026-04-25 13:48 | -12.62018 | -54.72134 | 35014 ft | 468 kts | 149° |
| 2026-04-25 13:49 | -12.67730 | -54.68918 | 35015 ft | 468 kts | 149° |
| 2026-04-25 13:49 | -12.73442 | -54.65700 | 35016 ft | 468 kts | 149° |
| 2026-04-25 13:50 | -12.79203 | -54.62451 | 35016 ft | 468 kts | 149° |
| 2026-04-25 13:50 | -12.84926 | -54.59220 | 35017 ft | 467 kts | 149° |
| 2026-04-25 13:51 | -12.90626 | -54.56003 | 35020 ft | 468 kts | 149° |
| 2026-04-25 13:51 | -12.96314 | -54.52797 | 35021 ft | 467 kts | 149° |
| 2026-04-25 13:52 | -13.02039 | -54.49569 | 35023 ft | 467 kts | 149° |
| 2026-04-25 13:52 | -13.07730 | -54.46359 | 35026 ft | 467 kts | 149° |
| 2026-04-25 13:53 | -13.13309 | -54.43209 | 35025 ft | 466 kts | 148° |
| 2026-04-25 13:53 | -13.18999 | -54.39994 | 35021 ft | 467 kts | 148° |
| 2026-04-25 13:54 | -13.24710 | -54.36766 | 35022 ft | 466 kts | 148° |
| 2026-04-25 13:54 | -13.30388 | -54.33554 | 35025 ft | 466 kts | 148° |
| 2026-04-25 13:55 | -13.36121 | -54.30309 | 35028 ft | 465 kts | 148° |
| 2026-04-25 13:55 | -13.41788 | -54.27100 | 35035 ft | 465 kts | 148° |
| 2026-04-25 13:56 | -13.47478 | -54.23878 | 35038 ft | 465 kts | 148° |
| 2026-04-25 13:56 | -13.53133 | -54.20673 | 35043 ft | 465 kts | 148° |
| 2026-04-25 13:57 | -13.58790 | -54.17465 | 35041 ft | 465 kts | 148° |
| 2026-04-25 13:57 | -13.64472 | -54.14241 | 35045 ft | 464 kts | 148° |
| 2026-04-25 13:58 | -13.70141 | -54.11021 | 35047 ft | 463 kts | 148° |
| 2026-04-25 13:58 | -13.75798 | -54.07806 | 35049 ft | 464 kts | 148° |
| 2026-04-25 13:59 | -13.81473 | -54.04579 | 35057 ft | 463 kts | 148° |
| 2026-04-25 13:59 | -13.87118 | -54.01369 | 35063 ft | 464 kts | 147° |
| 2026-04-25 14:00 | -13.92779 | -53.98149 | 35065 ft | 463 kts | 147° |
| 2026-04-25 14:00 | -13.98450 | -53.94922 | 35059 ft | 460 kts | 147° |
| 2026-04-25 14:01 | -14.04075 | -53.91719 | 35059 ft | 462 kts | 147° |
| 2026-04-25 14:01 | -14.09709 | -53.88509 | 35065 ft | 462 kts | 147° |
| 2026-04-25 14:02 | -14.15352 | -53.85289 | 35065 ft | 462 kts | 147° |
| 2026-04-25 14:02 | -14.20981 | -53.82077 | 35068 ft | 461 kts | 147° |
| 2026-04-25 14:03 | -14.26632 | -53.78850 | 35067 ft | 461 kts | 147° |
| 2026-04-25 14:03 | -14.32227 | -53.75654 | 35063 ft | 460 kts | 147° |
| 2026-04-25 14:04 | -14.37838 | -53.72448 | 35063 ft | 460 kts | 147° |
| 2026-04-25 14:04 | -14.43473 | -53.69283 | 35061 ft | 461 kts | 148° |
| 2026-04-25 14:05 | -14.49217 | -53.66270 | 35061 ft | 461 kts | 149° |
| 2026-04-25 14:05 | -14.54952 | -53.63316 | 35061 ft | 462 kts | 150° |
| 2026-04-25 14:06 | -14.60632 | -53.60247 | 35067 ft | 459 kts | 147° |
| 2026-04-25 14:06 | -14.66136 | -53.56991 | 35070 ft | 459 kts | 146° |
| 2026-04-25 14:07 | -14.71658 | -53.53664 | 35078 ft | 459 kts | 146° |
| 2026-04-25 14:07 | -14.77181 | -53.50351 | 35081 ft | 458 kts | 146° |
| 2026-04-25 14:08 | -14.82682 | -53.47069 | 35084 ft | 458 kts | 146° |
| 2026-04-25 14:08 | -14.88231 | -53.43769 | 35085 ft | 460 kts | 146° |
| 2026-04-25 14:09 | -14.93794 | -53.40464 | 35086 ft | 459 kts | 146° |
| 2026-04-25 14:09 | -14.99352 | -53.37164 | 35085 ft | 458 kts | 146° |
| 2026-04-25 14:10 | -15.04891 | -53.33900 | 35077 ft | 459 kts | 147° |
| 2026-04-25 14:10 | -15.10475 | -53.30687 | 35069 ft | 459 kts | 147° |
| 2026-04-25 14:11 | -15.16072 | -53.27481 | 35068 ft | 458 kts | 147° |
| 2026-04-25 14:11 | -15.21684 | -53.24258 | 35062 ft | 460 kts | 147° |
| 2026-04-25 14:12 | -15.27296 | -53.21028 | 35061 ft | 460 kts | 147° |
| 2026-04-25 14:12 | -15.32873 | -53.17813 | 35061 ft | 459 kts | 147° |
| 2026-04-25 14:13 | -15.38445 | -53.14598 | 35067 ft | 459 kts | 147° |
| 2026-04-25 14:13 | -15.44024 | -53.11374 | 35070 ft | 459 kts | 147° |
| 2026-04-25 14:14 | -15.49638 | -53.08127 | 35073 ft | 459 kts | 147° |
| 2026-04-25 14:14 | -15.55189 | -53.04909 | 35071 ft | 459 kts | 147° |
| 2026-04-25 14:15 | -15.60816 | -53.01644 | 35068 ft | 459 kts | 147° |
| 2026-04-25 14:15 | -15.66374 | -52.98418 | 35063 ft | 459 kts | 147° |
| 2026-04-25 14:16 | -15.71971 | -52.95166 | 35059 ft | 459 kts | 147° |
| 2026-04-25 14:16 | -15.77560 | -52.91919 | 35056 ft | 459 kts | 147° |
| 2026-04-25 14:17 | -15.83172 | -52.88655 | 35055 ft | 459 kts | 147° |
| 2026-04-25 14:17 | -15.88752 | -52.85408 | 35054 ft | 459 kts | 147° |
| 2026-04-25 14:18 | -15.94321 | -52.82166 | 35054 ft | 458 kts | 147° |
| 2026-04-25 14:18 | -15.99902 | -52.78914 | 35052 ft | 459 kts | 148° |
| 2026-04-25 14:19 | -16.05489 | -52.75657 | 35056 ft | 459 kts | 148° |
| 2026-04-25 14:19 | -16.11065 | -52.72404 | 35057 ft | 459 kts | 148° |
| 2026-04-25 14:20 | -16.16619 | -52.69162 | 35058 ft | 459 kts | 148° |
| 2026-04-25 14:20 | -16.22209 | -52.65896 | 35061 ft | 460 kts | 148° |
| 2026-04-25 14:21 | -16.27783 | -52.62637 | 35059 ft | 460 kts | 148° |
| 2026-04-25 14:21 | -16.33384 | -52.59360 | 35060 ft | 460 kts | 148° |
| 2026-04-25 14:22 | -16.38958 | -52.56098 | 35061 ft | 460 kts | 148° |
| 2026-04-25 14:22 | -16.44582 | -52.52805 | 35064 ft | 461 kts | 148° |
| 2026-04-25 14:23 | -16.50173 | -52.49529 | 35064 ft | 461 kts | 148° |
| 2026-04-25 14:23 | -16.55753 | -52.46257 | 35073 ft | 461 kts | 148° |
| 2026-04-25 14:24 | -16.61388 | -52.42950 | 35078 ft | 461 kts | 148° |
| 2026-04-25 14:24 | -16.66962 | -52.39677 | 35086 ft | 461 kts | 148° |
| 2026-04-25 14:25 | -16.72579 | -52.36384 | 35089 ft | 461 kts | 148° |
| 2026-04-25 14:25 | -16.78184 | -52.33098 | 35091 ft | 461 kts | 148° |
| 2026-04-25 14:26 | -16.83806 | -52.29800 | 35092 ft | 462 kts | 148° |
| 2026-04-25 14:26 | -16.89410 | -52.26508 | 35092 ft | 463 kts | 148° |
| 2026-04-25 14:27 | -16.95000 | -52.23224 | 35092 ft | 463 kts | 148° |
| 2026-04-25 14:27 | -17.00624 | -52.19917 | 35100 ft | 462 kts | 148° |
| 2026-04-25 14:28 | -17.06227 | -52.16621 | 35105 ft | 461 kts | 148° |
| 2026-04-25 14:28 | -17.11851 | -52.13347 | 35113 ft | 463 kts | 149° |
| 2026-04-25 14:29 | -17.17521 | -52.10073 | 35120 ft | 463 kts | 149° |
| 2026-04-25 14:29 | -17.23171 | -52.06809 | 35127 ft | 464 kts | 149° |
| 2026-04-25 14:30 | -17.28828 | -52.03534 | 35132 ft | 465 kts | 149° |
| 2026-04-25 14:30 | -17.37321 | -51.98609 | 35134 ft | 465 kts | 149° |
| 2026-04-25 14:31 | -17.42982 | -51.95323 | 35133 ft | 465 kts | 149° |
| 2026-04-25 14:31 | -17.48651 | -51.92028 | 35135 ft | 465 kts | 149° |
| 2026-04-25 14:32 | -17.54307 | -51.88739 | 35135 ft | 465 kts | 149° |
| 2026-04-25 14:32 | -17.59786 | -51.85551 | 35135 ft | 466 kts | 149° |
| 2026-04-25 14:33 | -17.65462 | -51.82245 | 35133 ft | 466 kts | 149° |
| 2026-04-25 14:33 | -17.71138 | -51.78937 | 35133 ft | 465 kts | 149° |
| 2026-04-25 14:34 | -17.76795 | -51.75637 | 35131 ft | 466 kts | 150° |
| 2026-04-25 14:34 | -17.82478 | -51.72321 | 35127 ft | 467 kts | 150° |
| 2026-04-25 14:35 | -17.88180 | -51.68990 | 35120 ft | 467 kts | 150° |
| 2026-04-25 14:35 | -17.93839 | -51.65683 | 35116 ft | 466 kts | 150° |
| 2026-04-25 14:36 | -17.99517 | -51.62360 | 35112 ft | 466 kts | 150° |
| 2026-04-25 14:36 | -18.05173 | -51.59050 | 35110 ft | 466 kts | 150° |
| 2026-04-25 14:37 | -18.10879 | -51.55707 | 35107 ft | 467 kts | 150° |
| 2026-04-25 14:37 | -18.16547 | -51.52383 | 35101 ft | 468 kts | 150° |
| 2026-04-25 14:38 | -18.22246 | -51.49040 | 35101 ft | 468 kts | 150° |
| 2026-04-25 14:38 | -18.27902 | -51.45703 | 35097 ft | 467 kts | 149° |
| 2026-04-25 14:39 | -18.33493 | -51.42273 | 35092 ft | 468 kts | 149° |
| 2026-04-25 14:39 | -18.39148 | -51.38746 | 35083 ft | 467 kts | 148° |
| 2026-04-25 14:40 | -18.44731 | -51.35262 | 35084 ft | 467 kts | 149° |
| 2026-04-25 14:40 | -18.50391 | -51.31739 | 35080 ft | 469 kts | 148° |
| 2026-04-25 14:41 | -18.56020 | -51.28242 | 35071 ft | 469 kts | 149° |
| 2026-04-25 14:41 | -18.61653 | -51.24743 | 35062 ft | 469 kts | 149° |
| 2026-04-25 14:42 | -18.65393 | -51.22420 | 35059 ft | 470 kts | 149° |
| 2026-04-25 14:42 | -18.72921 | -51.17741 | 35045 ft | 469 kts | 149° |
| 2026-04-25 14:43 | -18.78538 | -51.14246 | 35047 ft | 468 kts | 149° |
| 2026-04-25 14:43 | -18.84143 | -51.10755 | 35048 ft | 469 kts | 149° |
| 2026-04-25 14:44 | -18.89767 | -51.07250 | 35038 ft | 471 kts | 149° |
| 2026-04-25 14:44 | -18.95443 | -51.03710 | 35041 ft | 471 kts | 149° |
| 2026-04-25 14:45 | -19.01058 | -51.00205 | 35038 ft | 470 kts | 149° |
| 2026-04-25 14:45 | -19.06679 | -50.96605 | 35033 ft | 469 kts | 148° |
| 2026-04-25 14:46 | -19.12217 | -50.92965 | 35031 ft | 470 kts | 148° |
| 2026-04-25 14:46 | -19.17777 | -50.89296 | 35030 ft | 470 kts | 148° |
| 2026-04-25 14:47 | -19.21506 | -50.86839 | 35023 ft | 471 kts | 148° |
| 2026-04-25 14:47 | -19.28930 | -50.81956 | 35023 ft | 472 kts | 148° |
| 2026-04-25 14:48 | -19.34551 | -50.78262 | 35020 ft | 471 kts | 148° |
| 2026-04-25 14:48 | -19.40086 | -50.74625 | 35018 ft | 470 kts | 148° |
| 2026-04-25 14:49 | -19.45668 | -50.70955 | 35024 ft | 470 kts | 148° |
| 2026-04-25 14:49 | -19.51269 | -50.67269 | 35031 ft | 470 kts | 148° |
| 2026-04-25 14:50 | -19.56847 | -50.63596 | 35034 ft | 471 kts | 148° |
| 2026-04-25 14:50 | -19.62422 | -50.59921 | 35039 ft | 472 kts | 148° |
| 2026-04-25 14:51 | -19.67992 | -50.56253 | 35040 ft | 472 kts | 149° |
| 2026-04-25 14:51 | -19.73602 | -50.52620 | 35045 ft | 472 kts | 149° |
| 2026-04-25 14:52 | -19.79224 | -50.49004 | 35045 ft | 471 kts | 149° |
| 2026-04-25 14:52 | -19.83957 | -50.45958 | 35046 ft | 471 kts | 149° |
| 2026-04-25 14:53 | -19.90508 | -50.41731 | 35052 ft | 470 kts | 149° |
| 2026-04-25 14:53 | -19.96088 | -50.38123 | 35055 ft | 470 kts | 150° |
| 2026-04-25 14:54 | -20.01704 | -50.34488 | 35055 ft | 471 kts | 149° |
| 2026-04-25 14:54 | -20.07304 | -50.30858 | 35057 ft | 472 kts | 149° |
| 2026-04-25 14:55 | -20.12934 | -50.27224 | 35063 ft | 471 kts | 150° |
| 2026-04-25 14:55 | -20.18647 | -50.23769 | 35070 ft | 470 kts | 152° |
| 2026-04-25 14:56 | -20.24395 | -50.20407 | 35066 ft | 470 kts | 152° |
| 2026-04-25 14:56 | -20.30138 | -50.17046 | 35062 ft | 470 kts | 152° |
| 2026-04-25 14:57 | -20.35931 | -50.13635 | 35060 ft | 471 kts | 152° |
| 2026-04-25 14:57 | -20.41703 | -50.10217 | 35057 ft | 472 kts | 152° |
| 2026-04-25 14:58 | -20.47448 | -50.06802 | 35053 ft | 471 kts | 152° |
| 2026-04-25 14:58 | -20.52904 | -50.03553 | 35056 ft | 471 kts | 152° |
| 2026-04-25 14:59 | -20.58619 | -50.00146 | 35054 ft | 470 kts | 152° |
| 2026-04-25 14:59 | -20.64375 | -49.96711 | 35054 ft | 470 kts | 152° |
| 2026-04-25 15:00 | -20.70078 | -49.93306 | 35054 ft | 470 kts | 152° |
| 2026-04-25 15:00 | -20.75810 | -49.89880 | 35053 ft | 471 kts | 152° |
| 2026-04-25 15:01 | -20.81506 | -49.86473 | 35054 ft | 472 kts | 152° |
| 2026-04-25 15:01 | -20.87266 | -49.83025 | 35051 ft | 472 kts | 153° |
| 2026-04-25 15:02 | -20.93000 | -49.79588 | 35055 ft | 471 kts | 153° |
| 2026-04-25 15:02 | -20.98731 | -49.76150 | 35056 ft | 470 kts | 153° |
| 2026-04-25 15:03 | -21.04458 | -49.72712 | 35065 ft | 471 kts | 153° |
| 2026-04-25 15:03 | -21.10190 | -49.69268 | 35073 ft | 471 kts | 153° |
| 2026-04-25 15:04 | -21.15893 | -49.65838 | 35072 ft | 471 kts | 153° |
| 2026-04-25 15:04 | -21.21626 | -49.62387 | 35074 ft | 472 kts | 153° |
| 2026-04-25 15:05 | -21.27348 | -49.58940 | 35073 ft | 472 kts | 153° |
| 2026-04-25 15:06 | -21.36000 | -49.53721 | 35075 ft | 473 kts | 153° |
| 2026-04-25 15:06 | -21.41758 | -49.50243 | 35075 ft | 472 kts | 153° |
| 2026-04-25 15:07 | -21.47465 | -49.46795 | 35069 ft | 473 kts | 153° |
| 2026-04-25 15:07 | -21.53225 | -49.43311 | 35061 ft | 472 kts | 153° |
| 2026-04-25 15:08 | -21.58946 | -49.39848 | 35059 ft | 473 kts | 153° |
| 2026-04-25 15:08 | -21.64719 | -49.36349 | 35060 ft | 473 kts | 153° |
| 2026-04-25 15:09 | -21.70476 | -49.32857 | 35062 ft | 474 kts | 153° |
| 2026-04-25 15:09 | -21.79036 | -49.27658 | 35063 ft | 475 kts | 153° |
| 2026-04-25 15:10 | -21.84766 | -49.24173 | 35063 ft | 474 kts | 153° |
| 2026-04-25 15:11 | -21.93402 | -49.18917 | 35063 ft | 475 kts | 153° |
| 2026-04-25 15:11 | -21.99181 | -49.15396 | 35063 ft | 474 kts | 153° |
| 2026-04-25 15:12 | -22.07746 | -49.09994 | 35067 ft | 477 kts | 148° |
| 2026-04-25 15:12 | -22.11215 | -49.07031 | 35072 ft | 480 kts | 140° |
| 2026-04-25 15:13 | -22.19574 | -48.97321 | 35081 ft | 483 kts | 133° |
| 2026-04-25 15:14 | -22.23952 | -48.91795 | 35080 ft | 484 kts | 133° |
| 2026-04-25 15:14 | -22.28338 | -48.86302 | 35081 ft | 483 kts | 133° |
| 2026-04-25 15:15 | -22.32791 | -48.80809 | 35079 ft | 483 kts | 134° |
| 2026-04-25 15:15 | -22.37235 | -48.75338 | 35080 ft | 484 kts | 134° |
| 2026-04-25 15:16 | -22.41660 | -48.69883 | 35083 ft | 484 kts | 134° |
| 2026-04-25 15:16 | -22.48318 | -48.61666 | 35085 ft | 484 kts | 134° |
| 2026-04-25 15:17 | -22.54959 | -48.53458 | 35084 ft | 483 kts | 134° |
| 2026-04-25 15:18 | -22.59282 | -48.47819 | 35079 ft | 486 kts | 127° |
| 2026-04-25 15:18 | -22.62508 | -48.41406 | 35075 ft | 490 kts | 115° |
| 2026-04-25 15:18 | -22.63767 | -48.37954 | 35072 ft | 491 kts | 112° |
| 2026-04-25 15:19 | -22.65272 | -48.33300 | 35070 ft | 492 kts | 109° |
| 2026-04-25 15:19 | -22.68103 | -48.23949 | 34910 ft | 491 kts | 109° |
| 2026-04-25 15:20 | -22.69074 | -48.20745 | 34448 ft | 487 kts | 109° |
| 2026-04-25 15:20 | -22.70132 | -48.17291 | 33797 ft | 486 kts | 109° |
| 2026-04-25 15:20 | -22.71205 | -48.13820 | 33042 ft | 486 kts | 109° |
| 2026-04-25 15:20 | -22.72279 | -48.10371 | 32309 ft | 487 kts | 110° |
| 2026-04-25 15:21 | -22.73382 | -48.06852 | 31538 ft | 488 kts | 110° |
| 2026-04-25 15:21 | -22.74467 | -48.03369 | 30740 ft | 491 kts | 109° |
| 2026-04-25 15:21 | -22.75507 | -47.99863 | 30065 ft | 490 kts | 109° |
| 2026-04-25 15:21 | -22.76551 | -47.96388 | 29454 ft | 487 kts | 111° |
| 2026-04-25 15:22 | -22.77813 | -47.92965 | 28811 ft | 485 kts | 116° |
| 2026-04-25 15:22 | -22.79229 | -47.89693 | 28166 ft | 483 kts | 118° |
| 2026-04-25 15:22 | -22.80758 | -47.86449 | 27506 ft | 481 kts | 120° |
| 2026-04-25 15:22 | -22.82319 | -47.83270 | 27093 ft | 473 kts | 120° |
| 2026-04-25 15:23 | -22.83877 | -47.80139 | 27064 ft | 470 kts | 121° |
| 2026-04-25 15:23 | -22.85436 | -47.77014 | 27061 ft | 477 kts | 120° |
| 2026-04-25 15:23 | -22.87010 | -47.73841 | 27058 ft | 477 kts | 120° |
| 2026-04-25 15:23 | -22.88575 | -47.70662 | 27059 ft | 477 kts | 120° |
| 2026-04-25 15:24 | -22.90110 | -47.67523 | 27061 ft | 478 kts | 120° |
| 2026-04-25 15:24 | -22.91665 | -47.64325 | 27060 ft | 477 kts | 120° |
| 2026-04-25 15:24 | -22.93210 | -47.61134 | 27060 ft | 479 kts | 120° |
| 2026-04-25 15:24 | -22.93737 | -47.60043 | 27061 ft | 479 kts | 120° |
| 2026-04-25 15:25 | -22.96296 | -47.54731 | 26381 ft | 478 kts | 120° |
| 2026-04-25 15:25 | -22.97826 | -47.51546 | 25694 ft | 477 kts | 120° |
| 2026-04-25 15:25 | -22.99349 | -47.48371 | 25023 ft | 476 kts | 120° |
| 2026-04-25 15:25 | -23.00864 | -47.45209 | 24353 ft | 474 kts | 119° |
| 2026-04-25 15:26 | -23.02385 | -47.42032 | 23680 ft | 472 kts | 120° |
| 2026-04-25 15:26 | -23.03894 | -47.38880 | 23161 ft | 465 kts | 119° |
| 2026-04-25 15:26 | -23.05345 | -47.35841 | 23073 ft | 449 kts | 119° |
| 2026-04-25 15:26 | -23.06768 | -47.32858 | 23079 ft | 437 kts | 119° |
| 2026-04-25 15:27 | -23.08160 | -47.29944 | 23065 ft | 442 kts | 119° |
| 2026-04-25 15:27 | -23.09517 | -47.26891 | 22772 ft | 445 kts | 114° |
| 2026-04-25 15:27 | -23.10772 | -47.20435 | 21728 ft | 441 kts | 90° |
| 2026-04-25 15:28 | -23.10532 | -47.17113 | 21116 ft | 440 kts | 81° |
| 2026-04-25 15:28 | -23.09893 | -47.13919 | 20498 ft | 439 kts | 73° |
| 2026-04-25 15:28 | -23.08767 | -47.10842 | 19859 ft | 436 kts | 60° |
| 2026-04-25 15:28 | -23.07108 | -47.08111 | 19313 ft | 430 kts | 50° |
| 2026-04-25 15:29 | -23.05201 | -47.05638 | 18692 ft | 428 kts | 47° |
| 2026-04-25 15:29 | -23.03197 | -47.03235 | 17994 ft | 428 kts | 45° |
| 2026-04-25 15:29 | -23.01179 | -47.00898 | 17327 ft | 427 kts | 45° |
| 2026-04-25 15:29 | -22.99141 | -46.98562 | 16670 ft | 425 kts | 45° |
| 2026-04-25 15:30 | -22.97114 | -46.96237 | 16214 ft | 418 kts | 45° |
| 2026-04-25 15:30 | -22.95172 | -46.93994 | 16022 ft | 403 kts | 45° |
| 2026-04-25 15:30 | -22.93274 | -46.91786 | 15871 ft | 388 kts | 46° |
| 2026-04-25 15:30 | -22.91478 | -46.89688 | 15697 ft | 376 kts | 46° |
| 2026-04-25 15:31 | -22.89725 | -46.87632 | 15584 ft | 362 kts | 46° |
| 2026-04-25 15:31 | -22.88069 | -46.85664 | 15471 ft | 349 kts | 48° |
| 2026-04-25 15:31 | -22.86598 | -46.83634 | 15334 ft | 337 kts | 54° |
| 2026-04-25 15:31 | -22.85350 | -46.81514 | 15048 ft | 332 kts | 59° |
| 2026-04-25 15:32 | -22.84217 | -46.79316 | 14656 ft | 330 kts | 62° |
| 2026-04-25 15:32 | -22.83160 | -46.77154 | 14309 ft | 327 kts | 62° |
| 2026-04-25 15:32 | -22.82105 | -46.74983 | 14132 ft | 320 kts | 63° |
| 2026-04-25 15:33 | -22.80417 | -46.70444 | 14128 ft | 326 kts | 73° |
| 2026-04-25 15:33 | -22.79778 | -46.68103 | 14130 ft | 326 kts | 75° |
| 2026-04-25 15:33 | -22.79183 | -46.65799 | 14136 ft | 326 kts | 75° |
| 2026-04-25 15:33 | -22.78649 | -46.63573 | 14137 ft | 326 kts | 79° |
| 2026-04-25 15:34 | -22.78303 | -46.61156 | 14143 ft | 326 kts | 85° |
| 2026-04-25 15:34 | -22.78120 | -46.58702 | 14143 ft | 327 kts | 88° |
| 2026-04-25 15:34 | -22.78004 | -46.56242 | 14145 ft | 326 kts | 88° |
| 2026-04-25 15:34 | -22.77970 | -46.55437 | 14145 ft | 326 kts | 89° |
| 2026-04-25 15:35 | -22.78246 | -46.48920 | 14154 ft | 324 kts | 100° |
| 2026-04-25 15:35 | -22.78618 | -46.46551 | 14159 ft | 324 kts | 102° |
| 2026-04-25 15:35 | -22.79030 | -46.44124 | 14158 ft | 323 kts | 102° |
| 2026-04-25 15:36 | -22.80255 | -46.39484 | 14157 ft | 322 kts | 114° |
| 2026-04-25 15:36 | -22.81165 | -46.37275 | 14152 ft | 321 kts | 121° |
| 2026-04-25 15:36 | -22.82528 | -46.35391 | 14160 ft | 317 kts | 141° |
| 2026-04-25 15:37 | -22.84395 | -46.34137 | 14163 ft | 314 kts | 161° |
| 2026-04-25 15:37 | -22.86513 | -46.33614 | 14154 ft | 310 kts | 179° |
| 2026-04-25 15:37 | -22.88642 | -46.33841 | 14148 ft | 306 kts | 198° |
| 2026-04-25 15:37 | -22.90604 | -46.34806 | 14150 ft | 306 kts | 211° |
| 2026-04-25 15:38 | -22.92396 | -46.35999 | 14139 ft | 305 kts | 213° |
| 2026-04-25 15:38 | -22.94208 | -46.37239 | 14135 ft | 304 kts | 213° |
| 2026-04-25 15:38 | -22.96003 | -46.38458 | 14134 ft | 304 kts | 213° |
| 2026-04-25 15:38 | -22.97804 | -46.39667 | 14134 ft | 305 kts | 213° |
| 2026-04-25 15:39 | -22.99602 | -46.40864 | 14108 ft | 304 kts | 212° |
| 2026-04-25 15:39 | -23.01402 | -46.42057 | 13838 ft | 300 kts | 212° |
| 2026-04-25 15:39 | -23.03188 | -46.43240 | 13458 ft | 298 kts | 212° |
| 2026-04-25 15:39 | -23.04955 | -46.44411 | 13069 ft | 296 kts | 212° |
| 2026-04-25 15:40 | -23.06700 | -46.45568 | 12681 ft | 295 kts | 212° |
| 2026-04-25 15:40 | -23.07277 | -46.45950 | 12549 ft | 294 kts | 212° |
| 2026-04-25 15:40 | -23.10175 | -46.47873 | 11911 ft | 292 kts | 212° |
| 2026-04-25 15:40 | -23.11923 | -46.49033 | 11517 ft | 291 kts | 212° |
| 2026-04-25 15:41 | -23.13654 | -46.50183 | 11124 ft | 290 kts | 212° |
| 2026-04-25 15:41 | -23.15350 | -46.51310 | 10738 ft | 289 kts | 212° |
| 2026-04-25 15:41 | -23.17093 | -46.52422 | 10375 ft | 287 kts | 208° |
| 2026-04-25 15:41 | -23.18946 | -46.53144 | 10203 ft | 279 kts | 188° |
| 2026-04-25 15:42 | -23.20845 | -46.52911 | 10113 ft | 273 kts | 159° |
| 2026-04-25 15:42 | -23.22418 | -46.51790 | 10122 ft | 277 kts | 136° |
| 2026-04-25 15:42 | -23.23631 | -46.50132 | 10106 ft | 277 kts | 124° |
| 2026-04-25 15:42 | -23.24646 | -46.48376 | 9919 ft | 272 kts | 122° |
| 2026-04-25 15:43 | -23.25610 | -46.46637 | 9616 ft | 271 kts | 122° |
| 2026-04-25 15:43 | -23.26523 | -46.44849 | 9293 ft | 270 kts | 114° |
| 2026-04-25 15:43 | -23.27022 | -46.42903 | 8995 ft | 268 kts | 95° |
| 2026-04-25 15:43 | -23.27069 | -46.40877 | 8690 ft | 265 kts | 88° |
| 2026-04-25 15:44 | -23.27016 | -46.38895 | 8370 ft | 261 kts | 88° |
| 2026-04-25 15:44 | -23.26983 | -46.36943 | 8086 ft | 257 kts | 89° |
| 2026-04-25 15:44 | -23.26986 | -46.35055 | 8004 ft | 243 kts | 90° |
| 2026-04-25 15:44 | -23.27009 | -46.33242 | 7841 ft | 235 kts | 90° |
| 2026-04-25 15:45 | -23.27046 | -46.31475 | 7587 ft | 231 kts | 93° |
| 2026-04-25 15:45 | -23.27343 | -46.29792 | 7324 ft | 228 kts | 112° |
| 2026-04-25 15:45 | -23.28066 | -46.28267 | 7070 ft | 224 kts | 121° |
| 2026-04-25 15:45 | -23.28333 | -46.27776 | 7000 ft | 222 kts | 121° |
| 2026-04-25 15:46 | -23.29977 | -46.25726 | 6863 ft | 216 kts | 150° |
| 2026-04-25 15:46 | -23.31367 | -46.25203 | 6706 ft | 213 kts | 179° |
| 2026-04-25 15:46 | -23.32818 | -46.25350 | 6448 ft | 206 kts | 198° |
| 2026-04-25 15:46 | -23.34171 | -46.25849 | 6211 ft | 205 kts | 204° |
| 2026-04-25 15:47 | -23.35496 | -46.26418 | 5986 ft | 196 kts | 205° |
| 2026-04-25 15:47 | -23.36743 | -46.26967 | 5843 ft | 192 kts | 210° |
| 2026-04-25 15:47 | -23.37755 | -46.27856 | 5589 ft | 184 kts | 242° |
| 2026-04-25 15:47 | -23.38208 | -46.29134 | 5318 ft | 181 kts | 258° |
| 2026-04-25 15:48 | -23.38536 | -46.30459 | 5067 ft | 179 kts | 256° |
| 2026-04-25 15:48 | -23.38884 | -46.31697 | 4863 ft | 167 kts | 255° |
| 2026-04-25 15:48 | -23.39220 | -46.32908 | 4670 ft | 171 kts | 256° |
| 2026-04-25 15:48 | -23.39547 | -46.34134 | 4377 ft | 167 kts | 257° |
| 2026-04-25 15:49 | -23.39879 | -46.35344 | 4203 ft | 169 kts | 257° |
| 2026-04-25 15:49 | -23.40215 | -46.36557 | 3978 ft | 167 kts | 256° |
| 2026-04-25 15:49 | -23.40537 | -46.37745 | 3740 ft | 159 kts | 257° |
| 2026-04-25 15:49 | -23.40851 | -46.38881 | 3551 ft | 153 kts | 257° |
| 2026-04-25 15:50 | -23.41149 | -46.40013 | 3358 ft | 156 kts | 257° |
| 2026-04-25 15:50 | -23.41461 | -46.41140 | 3159 ft | 153 kts | 256° |
| 2026-04-25 15:50 | -23.41765 | -46.42242 | 2968 ft | 151 kts | 257° |
| 2026-04-25 15:50 | -23.42064 | -46.43356 | 2674 ft | 154 kts | 254° |
| 2026-04-25 15:51 | -23.42388 | -46.44442 | 2511 ft | 150 kts | 255° |
| 2026-04-25 15:51 | -23.42488 | -46.44806 | 2492 ft | 150 kts | 256° |
| 2026-04-25 15:51 | -23.42927 | -46.46482 | 2448 ft | 112 kts | 254° |
| 2026-04-25 15:51 | -23.43074 | -46.47049 | 2451 ft | 53 kts | 268° |
| 2026-04-25 15:52 | -23.43023 | -46.47321 | 2448 ft | 12 kts | 284° |
| 2026-04-25 15:52 | -23.43021 | -46.47331 | 2448 ft | 0 kts | 284° |
| 2026-04-25 15:52 | -23.43013 | -46.47372 | 2448 ft | 12 kts | 277° |
| 2026-04-25 15:53 | -23.42952 | -46.47471 | 2446 ft | 18 kts | 293° |
| 2026-04-25 15:53 | -23.42980 | -46.47636 | 2447 ft | 26 kts | 254° |
| 2026-04-25 15:53 | -23.43034 | -46.47835 | 2447 ft | 27 kts | 254° |
| 2026-04-25 15:53 | -23.43086 | -46.48027 | 2447 ft | 22 kts | 254° |
| 2026-04-25 15:54 | -23.43052 | -46.48128 | 2447 ft | 15 kts | 345° |
| 2026-04-25 15:54 | -23.42947 | -46.48141 | 2447 ft | 14 kts | 355° |
| 2026-04-25 15:54 | -23.42888 | -46.48176 | 2447 ft | 6 kts | 282° |
| 2026-04-25 15:54 | -23.42887 | -46.48199 | 2447 ft | 2 kts | 269° |
| 2026-04-25 15:55 | -23.42888 | -46.48210 | 2447 ft | 0 kts | 265° |
| 2026-04-25 15:55 | -23.42889 | -46.48220 | 2447 ft | 1 kts | 265° |
| 2026-04-25 15:55 | -23.42889 | -46.48222 | 2447 ft | 0 kts | 265° |